Time;durP1;ratioP1;P1;durP2;ratioP2;P2;SDS_P1;SDS_P2;PMS_P1;PMS_P2;Temp;Humidity;BMP_temperature;BMP_pressure;BME280_temperature;BME280_humidity;BME280_pressure;Samples;Min_cycle;Max_cycle;Signal;HPM_P1;HPM_P2
2024/03/27 00:01:56;;;;;;;;;;;;;;;13.01;49.25;97015.31;4162877;28;20007;-71
2024/03/27 00:03:57;;;;;;;;;;;;;;;12.77;49.95;97007.25;4163215;28;19963;-71
2024/03/27 00:05:57;;;;;;;;;;;;;;;12.73;50.34;97014.16;4163083;28;19917;-71
2024/03/27 00:07:59;;;;;;;;;;;;;;;12.70;50.55;97014.63;4176101;28;19928;-71
2024/03/27 00:10:00;;;;;;;;;;;;;;;12.79;50.27;97003.31;4171602;28;19909;-72
2024/03/27 00:12:01;;;;;;;;;;;;;;;12.85;50.13;97011.47;4163353;28;19920;-70
2024/03/27 00:14:02;;;;;;;;;;;;;;;12.91;49.71;97016.72;4163259;28;19909;-71
2024/03/27 00:16:03;;;;;;;;;;;;;;;12.77;49.95;97016.13;4157023;28;20369;-71
2024/03/27 00:18:03;;;;;;;;;;;;;;;12.90;49.75;97015.09;4162442;28;19916;-70
2024/03/27 00:20:06;;;;;;;;;;;;;;;12.71;50.40;97026.97;4163499;28;19909;-70
2024/03/27 00:22:07;;;;;;;;;;;;;;;12.90;50.18;97015.09;4162931;28;19909;-72
2024/03/27 00:24:07;;;;;;;;;;;;;;;12.81;50.10;97008.44;4165084;28;19912;-70
2024/03/27 00:26:08;;;;;;;;;;;;;;;12.90;49.91;97007.03;4165769;28;20278;-71
2024/03/27 00:28:08;;;;;;;;;;;;;;;12.86;49.99;96997.81;4165312;28;19963;-71
2024/03/27 00:30:09;;;;;;;;;;;;;;;12.90;49.88;97006.22;4165769;28;20258;-70
2024/03/27 00:32:09;;;;;;;;;;;;;;;12.86;50.00;96997.81;4165840;28;20004;-70
2024/03/27 00:34:10;;;;;;;;;;;;;;;12.72;50.46;96991.09;4166161;28;19916;-71
2024/03/27 00:36:10;;;;;;;;;;;;;;;12.77;50.29;96999.22;4165799;28;19909;-71
2024/03/27 00:38:11;;;;;;;;;;;;;;;12.50;50.55;97021.13;4165684;28;19909;-70
2024/03/27 00:40:12;;;;;;;;;;;;;;;12.40;50.92;97020.88;4153313;28;19920;-71
2024/03/27 00:42:13;;;;;;;;;;;;;;;12.58;50.83;97010.06;4164140;28;19947;-71
2024/03/27 00:44:13;;;;;;;;;;;;;;;12.80;50.13;97004.13;4164602;28;19917;-72
2024/03/27 00:46:14;;;;;;;;;;;;;;;12.88;50.11;96995.72;4165412;28;19919;-71
2024/03/27 00:48:14;;;;;;;;;;;;;;;12.87;49.90;96996.78;4164963;28;19916;-71
2024/03/27 00:50:14;;;;;;;;;;;;;;;12.71;50.15;96989.44;4165294;28;20301;-71
2024/03/27 00:52:15;;;;;;;;;;;;;;;12.84;50.26;96983.88;4165166;28;19909;-71
2024/03/27 00:54:15;;;;;;;;;;;;;;;12.53;51.19;96972.44;4165103;28;20425;-70
2024/03/27 00:56:16;;;;;;;;;;;;;;;12.62;50.98;96971.03;4165483;28;19952;-70
2024/03/27 00:58:18;;;;;;;;;;;;;;;12.62;50.98;96968.38;4165448;28;19944;-70
2024/03/27 01:00:18;;;;;;;;;;;;;;;12.68;50.69;96963.09;4164909;28;19913;-71
2024/03/27 01:02:19;;;;;;;;;;;;;;;12.65;50.61;96945.63;4165123;28;19935;-70
2024/03/27 01:04:19;;;;;;;;;;;;;;;12.23;51.99;96935.84;4161269;28;20405;-70
2024/03/27 01:06:19;;;;;;;;;;;;;;;12.30;52.07;96941.09;4165029;28;19948;-70
2024/03/27 01:08:22;;;;;;;;;;;;;;;12.39;51.76;96936.19;4164258;28;20008;-70
2024/03/27 01:10:23;;;;;;;;;;;;;;;12.50;51.47;96935.38;4161190;28;19908;-70
2024/03/27 01:12:23;;;;;;;;;;;;;;;12.56;51.60;96933.63;4164683;28;19931;-70
2024/03/27 01:14:24;;;;;;;;;;;;;;;12.56;51.49;96926.44;4164857;28;19913;-69
2024/03/27 01:16:24;;;;;;;;;;;;;;;12.48;51.61;96926.75;4164996;28;19956;-71
2024/03/27 01:18:26;;;;;;;;;;;;;;;12.51;51.53;96920.13;4170362;28;19909;-71
2024/03/27 01:20:27;;;;;;;;;;;;;;;12.41;51.52;96923.38;4165060;28;20008;-70
2024/03/27 01:22:28;;;;;;;;;;;;;;;12.42;51.48;96927.69;4168446;28;19909;-72
2024/03/27 01:24:29;;;;;;;;;;;;;;;12.50;51.20;96918.50;4174805;28;19909;-71
2024/03/27 01:26:29;;;;;;;;;;;;;;;12.50;51.20;96924.66;4174783;28;19931;-71
2024/03/27 01:28:30;;;;;;;;;;;;;;;12.50;51.28;96913.16;4169038;28;19996;-70
2024/03/27 01:30:30;;;;;;;;;;;;;;;12.56;51.04;96906.84;4162081;28;19985;-70
2024/03/27 01:32:30;;;;;;;;;;;;;;;12.44;51.36;96910.34;4164694;28;19916;-70
2024/03/27 01:34:30;;;;;;;;;;;;;;;12.29;51.86;96908.13;4164601;28;19916;-71
2024/03/27 01:36:31;;;;;;;;;;;;;;;11.99;52.75;96910.91;4164789;28;19916;-70
2024/03/27 01:38:31;;;;;;;;;;;;;;;11.92;52.79;96908.28;4168460;28;19980;-71
2024/03/27 01:40:32;;;;;;;;;;;;;;;12.03;52.80;96898.69;4172886;28;19909;-71
2024/03/27 01:42:35;;;;;;;;;;;;;;;11.99;52.84;96900.19;4177176;28;20300;-71
2024/03/27 01:44:36;;;;;;;;;;;;;;;12.05;52.48;96911.84;4180142;28;19909;-72
2024/03/27 01:46:36;;;;;;;;;;;;;;;12.16;52.00;96906.50;4177792;28;19972;-70
2024/03/27 01:48:37;;;;;;;;;;;;;;;12.11;52.47;96908.22;4167309;28;20521;-69
2024/03/27 01:50:37;;;;;;;;;;;;;;;12.07;52.07;96905.19;4164897;28;19935;-71
2024/03/27 01:52:39;;;;;;;;;;;;;;;11.88;52.85;96901.78;4164467;28;19908;-70
2024/03/27 01:54:40;;;;;;;;;;;;;;;11.76;53.37;96915.13;4164088;28;19909;-70
2024/03/27 01:56:40;;;;;;;;;;;;;;;11.61;54.08;96915.56;4164407;28;19935;-70
2024/03/27 01:58:42;;;;;;;;;;;;;;;11.62;54.39;96909.16;4164029;28;20281;-70
2024/03/27 02:00:43;;;;;;;;;;;;;;;11.57;54.34;96908.22;4164117;28;19909;-70
2024/03/27 02:02:44;;;;;;;;;;;;;;;11.78;53.97;96913.03;4164411;28;20032;-71
2024/03/27 02:04:44;;;;;;;;;;;;;;;11.78;53.95;96913.03;4164740;28;19940;-70
2024/03/27 02:06:45;;;;;;;;;;;;;;;11.69;53.82;96917.91;4163947;28;19917;-69
2024/03/27 02:08:45;;;;;;;;;;;;;;;11.41;54.57;96918.50;4163228;28;19928;-70
2024/03/27 02:10:45;;;;;;;;;;;;;;;11.57;54.45;96921.59;4163869;28;19935;-70
2024/03/27 02:12:46;;;;;;;;;;;;;;;11.73;53.97;96909.41;4163868;28;19931;-71
2024/03/27 02:14:46;;;;;;;;;;;;;;;11.74;53.88;96897.66;4164200;28;19915;-70
2024/03/27 02:16:47;;;;;;;;;;;;;;;11.76;53.46;96907.09;4163688;28;19916;-69
2024/03/27 02:18:47;;;;;;;;;;;;;;;11.70;53.79;96903.50;4163034;28;19958;-71
2024/03/27 02:20:47;;;;;;;;;;;;;;;11.61;53.75;96912.88;4163983;28;19948;-71
2024/03/27 02:22:49;;;;;;;;;;;;;;;11.51;54.19;96909.94;4163899;28;19928;-69
2024/03/27 02:24:52;;;;;;;;;;;;;;;11.51;54.03;96912.63;4163457;28;19921;-70
2024/03/27 02:26:52;;;;;;;;;;;;;;;11.36;54.68;96919.19;4163995;28;19909;-71
2024/03/27 02:28:53;;;;;;;;;;;;;;;11.34;54.73;96928.47;4166199;28;19948;-70
2024/03/27 02:30:53;;;;;;;;;;;;;;;11.20;55.43;96933.19;4168064;28;19967;-70
2024/03/27 02:32:53;;;;;;;;;;;;;;;11.19;55.33;96931.53;4165485;28;19920;-70
2024/03/27 02:34:53;;;;;;;;;;;;;;;11.30;55.18;96933.47;4163704;28;19917;-70
2024/03/27 02:36:54;;;;;;;;;;;;;;;11.21;55.63;96940.16;4163365;28;19909;-70
2024/03/27 02:38:54;;;;;;;;;;;;;;;11.26;55.70;96926.13;4162518;28;19913;-71
2024/03/27 02:40:54;;;;;;;;;;;;;;;11.43;55.22;96927.13;4163481;28;20002;-71
2024/03/27 02:42:55;;;;;;;;;;;;;;;11.41;55.29;96915.03;4164946;28;19909;-71
2024/03/27 02:44:55;;;;;;;;;;;;;;;11.46;55.21;96917.81;4176161;28;19923;-70
2024/03/27 02:46:56;;;;;;;;;;;;;;;11.46;54.88;96910.63;4162534;28;20424;-70
2024/03/27 02:48:56;;;;;;;;;;;;;;;11.43;55.20;96908.41;4161770;28;20002;-70
2024/03/27 02:50:57;;;;;;;;;;;;;;;11.47;54.80;96895.38;4172607;28;19908;-71
2024/03/27 02:52:57;;;;;;;;;;;;;;;11.54;54.63;96888.06;4164381;28;19909;-70
2024/03/27 02:54:57;;;;;;;;;;;;;;;11.48;54.91;96903.16;4160209;28;20011;-71
2024/03/27 02:56:59;;;;;;;;;;;;;;;11.41;55.19;96886.41;4168012;28;19915;-71
2024/03/27 02:58:59;;;;;;;;;;;;;;;11.34;55.59;96899.88;4166115;28;20047;-71
2024/03/27 03:00:59;;;;;;;;;;;;;;;11.35;55.50;96900.69;4162930;28;19940;-71
2024/03/27 03:03:00;;;;;;;;;;;;;;;11.08;56.29;96899.19;4163013;28;19915;-70
2024/03/27 03:05:00;;;;;;;;;;;;;;;11.02;56.77;96892.06;4163275;28;20439;-70
2024/03/27 03:07:00;;;;;;;;;;;;;;;10.98;56.87;96896.22;4145301;28;19913;-71
2024/03/27 03:09:01;;;;;;;;;;;;;;;11.05;56.84;96896.94;4162837;28;19975;-69
2024/03/27 03:11:01;;;;;;;;;;;;;;;11.15;56.91;96892.91;4172602;28;19905;-72
2024/03/27 03:13:02;;;;;;;;;;;;;;;11.20;56.37;96893.06;4183422;28;19924;-70
2024/03/27 03:15:04;;;;;;;;;;;;;;;11.16;56.75;96887.38;4172093;28;19916;-71
2024/03/27 03:17:04;;;;;;;;;;;;;;;11.08;56.85;96893.84;4178076;28;19920;-69
2024/03/27 03:19:05;;;;;;;;;;;;;;;11.14;56.96;96891.31;4178824;28;19924;-72
2024/03/27 03:21:05;;;;;;;;;;;;;;;11.21;56.41;96886.69;4161514;28;19993;-71
2024/03/27 03:23:06;;;;;;;;;;;;;;;11.27;56.30;96885.78;4183482;28;19974;-74
2024/03/27 03:25:06;;;;;;;;;;;;;;;11.33;56.18;96890.22;4183933;28;20355;-73
2024/03/27 03:27:06;;;;;;;;;;;;;;;11.32;56.45;96899.28;4178904;28;19908;-72
2024/03/27 03:29:07;;;;;;;;;;;;;;;11.29;56.49;96897.06;4179217;28;19955;-71
2024/03/27 03:31:07;;;;;;;;;;;;;;;11.15;56.98;96883.06;4179489;28;19963;-71
2024/03/27 03:33:07;;;;;;;;;;;;;;;11.16;57.24;96867.81;4178556;28;20006;-69
2024/03/27 03:35:10;;;;;;;;;;;;;;;11.20;56.47;96861.78;4162493;28;20397;-71
2024/03/27 03:37:10;;;;;;;;;;;;;;;11.19;57.01;96867.38;4162524;28;19948;-69
2024/03/27 03:39:10;;;;;;;;;;;;;;;11.14;57.20;96869.94;4162509;28;19909;-69
2024/03/27 03:41:12;;;;;;;;;;;;;;;10.87;58.18;96859.56;4162729;28;20388;-69
2024/03/27 03:43:13;;;;;;;;;;;;;;;10.57;58.92;96839.75;4162934;28;19909;-69
2024/03/27 03:45:14;;;;;;;;;;;;;;;10.41;59.32;96830.50;4165877;28;19927;-70
2024/03/27 03:47:14;;;;;;;;;;;;;;;10.27;59.76;96835.13;4178305;28;19909;-71
2024/03/27 03:49:15;;;;;;;;;;;;;;;10.30;59.94;96817.84;4179393;28;19916;-70
2024/03/27 03:51:15;;;;;;;;;;;;;;;10.23;60.04;96817.94;4177873;28;19909;-72
2024/03/27 03:53:18;;;;;;;;;;;;;;;10.26;60.03;96819.34;4178068;28;20012;-73
2024/03/27 03:55:19;;;;;;;;;;;;;;;10.34;59.82;96818.25;4178655;28;19916;-74
2024/03/27 03:57:19;;;;;;;;;;;;;;;10.39;59.62;96808.53;4175574;28;19956;-69
2024/03/27 03:59:20;;;;;;;;;;;;;;;10.27;59.38;96813.75;4165686;28;19916;-69
2024/03/27 04:01:20;;;;;;;;;;;;;;;10.31;58.74;96811.47;4165860;28;19913;-69
2024/03/27 04:03:21;;;;;;;;;;;;;;;10.31;58.75;96808.78;4166445;28;20014;-70
2024/03/27 04:05:21;;;;;;;;;;;;;;;10.43;58.38;96812.41;4167007;28;19913;-69
2024/03/27 04:07:21;;;;;;;;;;;;;;;10.55;57.82;96825.00;4164736;28;19915;-68
2024/03/27 04:09:22;;;;;;;;;;;;;;;10.61;57.85;96818.75;4148348;28;19925;-70
2024/03/27 04:11:22;;;;;;;;;;;;;;;10.61;57.51;96837.47;4163514;28;19931;-71
2024/03/27 04:13:23;;;;;;;;;;;;;;;10.65;57.28;96836.00;4166048;28;19909;-71
2024/03/27 04:15:23;;;;;;;;;;;;;;;10.68;57.16;96851.56;4165561;28;19920;-70
2024/03/27 04:17:23;;;;;;;;;;;;;;;10.53;57.25;96853.78;4165519;28;20376;-70
2024/03/27 04:19:24;;;;;;;;;;;;;;;10.62;57.37;96847.13;4165682;28;19909;-69
2024/03/27 04:21:24;;;;;;;;;;;;;;;10.52;58.15;96852.16;4165789;28;19919;-69
2024/03/27 04:23:25;;;;;;;;;;;;;;;10.56;57.77;96845.34;4165625;28;19916;-70
2024/03/27 04:25:25;;;;;;;;;;;;;;;10.50;58.05;96840.88;4165633;28;20433;-69
2024/03/27 04:27:26;;;;;;;;;;;;;;;10.53;57.74;96835.91;4165750;28;19913;-70
2024/03/27 04:29:26;;;;;;;;;;;;;;;10.48;57.63;96830.41;4165385;28;19920;-70
2024/03/27 04:31:26;;;;;;;;;;;;;;;10.34;58.62;96824.38;4165513;28;19909;-70
2024/03/27 04:33:27;;;;;;;;;;;;;;;10.28;58.44;96815.41;4165491;28;19913;-70
2024/03/27 04:35:27;;;;;;;;;;;;;;;10.21;58.60;96808.50;4165118;28;19959;-71
2024/03/27 04:37:27;;;;;;;;;;;;;;;10.20;58.48;96813.03;4165478;28;19943;-72
2024/03/27 04:39:28;;;;;;;;;;;;;;;10.29;58.47;96819.72;4163680;28;19952;-72
2024/03/27 04:41:28;;;;;;;;;;;;;;;10.26;58.43;96820.13;4166911;28;19909;-71
2024/03/27 04:43:32;;;;;;;;;;;;;;;10.21;58.52;96819.16;4174639;28;19955;-72
2024/03/27 04:45:32;;;;;;;;;;;;;;;10.10;58.80;96826.06;4174943;28;19952;-71
2024/03/27 04:47:33;;;;;;;;;;;;;;;10.00;59.58;96815.91;4164475;28;19909;-72
2024/03/27 04:49:33;;;;;;;;;;;;;;;9.93;59.54;96812.47;4165749;28;20348;-71
2024/03/27 04:51:33;;;;;;;;;;;;;;;10.02;59.17;96810.34;4165062;28;19928;-71
2024/03/27 04:53:34;;;;;;;;;;;;;;;9.99;59.07;96809.75;4165105;28;19912;-71
2024/03/27 04:55:34;;;;;;;;;;;;;;;10.08;58.92;96820.13;4166179;28;19913;-71
2024/03/27 04:57:34;;;;;;;;;;;;;;;10.16;58.69;96817.16;4153813;28;19909;-72
2024/03/27 04:59:35;;;;;;;;;;;;;;;10.12;58.86;96826.66;4160537;28;19915;-71
2024/03/27 05:01:35;;;;;;;;;;;;;;;10.16;58.56;96817.16;4159893;28;19980;-72
2024/03/27 05:03:36;;;;;;;;;;;;;;;10.05;58.84;96809.91;4178113;28;19909;-73
2024/03/27 05:05:36;;;;;;;;;;;;;;;9.95;59.18;96810.41;4176208;28;19913;-72
2024/03/27 05:07:36;;;;;;;;;;;;;;;10.04;59.17;96797.59;4171016;28;19909;-72
2024/03/27 05:09:37;;;;;;;;;;;;;;;10.14;58.84;96797.91;4164808;28;20362;-70
2024/03/27 05:11:38;;;;;;;;;;;;;;;10.12;58.75;96790.09;4165948;28;20339;-70
2024/03/27 05:13:39;;;;;;;;;;;;;;;10.05;59.56;96792.03;4166101;28;19936;-71
2024/03/27 05:15:39;;;;;;;;;;;;;;;10.14;58.97;96798.72;4174841;28;19909;-69
2024/03/27 05:17:40;;;;;;;;;;;;;;;10.12;58.90;96799.97;4166789;28;20361;-70
2024/03/27 05:19:40;;;;;;;;;;;;;;;10.03;59.62;96804.78;4165947;28;19912;-70
2024/03/27 05:21:40;;;;;;;;;;;;;;;9.72;60.70;96811.84;4166164;28;19909;-70
2024/03/27 05:23:41;;;;;;;;;;;;;;;9.61;61.03;96820.56;4165981;28;20265;-70
2024/03/27 05:25:41;;;;;;;;;;;;;;;9.47;61.45;96823.31;4147279;28;19913;-70
2024/03/27 05:27:42;;;;;;;;;;;;;;;9.38;62.00;96813.94;4164320;28;19917;-69
2024/03/27 05:29:42;;;;;;;;;;;;;;;9.43;61.83;96806.13;4165474;28;19916;-69
2024/03/27 05:31:50;;;;;;;;;;;;;;;9.43;62.00;96803.47;4164918;28;19952;-70
2024/03/27 05:33:51;;;;;;;;;;;;;;;9.60;61.74;96802.91;4168427;28;19973;-70
2024/03/27 05:35:51;;;;;;;;;;;;;;;9.74;61.23;96796.41;4169086;28;19909;-70
2024/03/27 05:37:53;;;;;;;;;;;;;;;9.67;61.08;96798.34;4164119;28;19915;-70
2024/03/27 05:39:53;;;;;;;;;;;;;;;9.62;60.96;96796.31;4164405;28;19909;-71
2024/03/27 05:41:53;;;;;;;;;;;;;;;9.62;60.76;96788.31;4164889;28;19917;-72
2024/03/27 05:43:54;;;;;;;;;;;;;;;9.67;60.75;96783.16;4164690;28;20280;-71
2024/03/27 05:45:55;;;;;;;;;;;;;;;9.76;60.49;96786.34;4164166;28;19917;-70
2024/03/27 05:47:55;;;;;;;;;;;;;;;9.82;60.04;96790.81;4163755;28;19909;-71
2024/03/27 05:49:56;;;;;;;;;;;;;;;9.75;60.28;96792.72;4164065;28;19963;-71
2024/03/27 05:51:56;;;;;;;;;;;;;;;9.71;60.42;96804.88;4164193;28;19913;-70
2024/03/27 05:53:57;;;;;;;;;;;;;;;9.68;60.55;96795.44;4164197;28;19913;-70
2024/03/27 05:55:58;;;;;;;;;;;;;;;9.73;60.49;96802.78;4146421;28;19909;-73
2024/03/27 05:57:58;;;;;;;;;;;;;;;9.65;60.54;96806.56;4145999;28;19931;-70
2024/03/27 05:59:58;;;;;;;;;;;;;;;9.64;60.60;96802.25;4163721;28;20004;-71
2024/03/27 06:01:59;;;;;;;;;;;;;;;9.54;60.96;96798.47;4163992;28;19920;-69
2024/03/27 06:03:59;;;;;;;;;;;;;;;9.56;60.96;96796.38;4164134;28;19948;-70
2024/03/27 06:06:00;;;;;;;;;;;;;;;9.70;60.21;96791.75;4164098;28;20388;-71
2024/03/27 06:08:00;;;;;;;;;;;;;;;9.81;60.28;96780.34;4164146;28;19920;-70
2024/03/27 06:10:01;;;;;;;;;;;;;;;9.89;59.82;96785.41;4163381;28;19909;-69
2024/03/27 06:12:01;;;;;;;;;;;;;;;9.74;59.99;96808.94;4162862;28;19909;-72
2024/03/27 06:14:01;;;;;;;;;;;;;;;9.72;59.82;96803.84;4165775;28;19909;-70
2024/03/27 06:16:02;;;;;;;;;;;;;;;9.89;59.27;96792.59;4179571;28;19909;-72
2024/03/27 06:18:02;;;;;;;;;;;;;;;9.81;59.32;96789.19;4175038;28;19916;-71
2024/03/27 06:20:03;;;;;;;;;;;;;;;9.78;59.39;96789.63;4165843;28;20499;-71
2024/03/27 06:22:03;;;;;;;;;;;;;;;9.73;59.52;96773.44;4163324;28;20512;-71
2024/03/27 06:24:04;;;;;;;;;;;;;;;9.79;59.55;96779.75;4163462;28;20433;-71
2024/03/27 06:26:04;;;;;;;;;;;;;;;9.86;59.29;96785.03;4163440;28;19956;-70
2024/03/27 06:28:04;;;;;;;;;;;;;;;9.87;59.09;96787.47;4163058;28;19909;-73
2024/03/27 06:30:07;;;;;;;;;;;;;;;9.63;60.23;96789.16;4163786;28;20372;-72
2024/03/27 06:32:10;;;;;;;;;;;;;;;9.59;60.46;96782.63;4173785;28;19909;-72
2024/03/27 06:34:12;;;;;;;;;;;;;;;9.76;60.34;96791.69;4163936;28;19913;-70
2024/03/27 06:36:12;;;;;;;;;;;;;;;9.60;60.48;96782.38;4163830;28;19916;-69
2024/03/27 06:38:13;;;;;;;;;;;;;;;9.65;60.40;96784.41;4163627;28;20345;-70
2024/03/27 06:40:14;;;;;;;;;;;;;;;9.83;59.97;96788.97;4163546;28;19974;-70
2024/03/27 06:42:14;;;;;;;;;;;;;;;9.83;59.75;96796.97;4163533;28;19909;-69
2024/03/27 06:44:15;;;;;;;;;;;;;;;9.86;59.46;96801.88;4164677;28;19909;-71
2024/03/27 06:46:20;;;;;;;;;;;;;;;9.70;59.58;96803.25;4161921;28;20292;-70
2024/03/27 06:48:21;;;;;;;;;;;;;;;9.88;59.31;96801.66;4163211;28;19955;-72
2024/03/27 06:50:21;;;;;;;;;;;;;;;9.88;59.39;96806.97;4163135;28;19935;-70
2024/03/27 06:52:22;;;;;;;;;;;;;;;9.90;59.23;96804.91;4162968;28;19909;-70
2024/03/27 06:54:22;;;;;;;;;;;;;;;9.86;59.20;96799.22;4162989;28;19916;-71
2024/03/27 06:56:22;;;;;;;;;;;;;;;9.96;58.96;96788.03;4163143;28;19909;-72
2024/03/27 06:58:23;;;;;;;;;;;;;;;9.96;58.88;96780.84;4162526;28;19949;-71
2024/03/27 07:00:23;;;;;;;;;;;;;;;9.90;58.71;96779.03;4162702;28;19913;-71
2024/03/27 07:02:24;;;;;;;;;;;;;;;9.99;58.53;96787.59;4162436;28;19917;-72
2024/03/27 07:04:25;;;;;;;;;;;;;;;10.02;58.53;96789.78;4163066;28;20054;-71
2024/03/27 07:06:25;;;;;;;;;;;;;;;9.98;58.41;96789.41;4163000;28;20323;-72
2024/03/27 07:08:26;;;;;;;;;;;;;;;9.89;57.87;96790.75;4162041;28;19968;-70
2024/03/27 07:10:26;;;;;;;;;;;;;;;9.91;58.05;96790.53;4162786;28;19913;-71
2024/03/27 07:12:26;;;;;;;;;;;;;;;9.98;57.86;96783.28;4163272;28;19913;-69
2024/03/27 07:14:27;;;;;;;;;;;;;;;10.02;57.75;96778.31;4164267;28;20546;-70
2024/03/27 07:16:27;;;;;;;;;;;;;;;9.91;57.53;96780.69;4163887;28;19937;-71
2024/03/27 07:18:28;;;;;;;;;;;;;;;9.63;57.77;96791.81;4164450;28;19916;-71
2024/03/27 07:20:28;;;;;;;;;;;;;;;9.88;57.34;96781.09;4164041;28;19913;-71
2024/03/27 07:22:28;;;;;;;;;;;;;;;9.86;57.16;96779.69;4146351;28;19920;-72
2024/03/27 07:24:29;;;;;;;;;;;;;;;9.82;57.26;96779.31;4162976;28;20008;-70
2024/03/27 07:26:30;;;;;;;;;;;;;;;9.91;56.88;96778.00;4162765;28;19967;-71
2024/03/27 07:28:31;;;;;;;;;;;;;;;9.58;57.91;96778.31;4162584;28;19909;-71
2024/03/27 07:30:31;;;;;;;;;;;;;;;9.63;57.79;96776.63;4163834;28;19916;-70
2024/03/27 07:32:32;;;;;;;;;;;;;;;9.66;57.83;96767.38;4163688;28;20285;-71
2024/03/27 07:34:32;;;;;;;;;;;;;;;9.84;57.26;96772.72;4167728;28;19909;-70
2024/03/27 07:36:34;;;;;;;;;;;;;;;9.84;57.26;96771.94;4167064;28;20417;-72
2024/03/27 07:38:34;;;;;;;;;;;;;;;9.78;57.36;96772.78;4167323;28;20551;-71
2024/03/27 07:40:35;;;;;;;;;;;;;;;9.67;57.55;96777.00;4167876;28;19909;-71
2024/03/27 07:42:35;;;;;;;;;;;;;;;9.59;57.88;96771.94;4150177;28;19909;-70
2024/03/27 07:44:36;;;;;;;;;;;;;;;9.93;56.85;96770.59;4168211;28;19994;-70
2024/03/27 07:46:37;;;;;;;;;;;;;;;9.91;56.95;96777.19;4169423;28;19913;-72
2024/03/27 07:48:38;;;;;;;;;;;;;;;10.02;56.73;96778.31;4181049;28;19913;-71
2024/03/27 07:50:38;;;;;;;;;;;;;;;10.16;56.13;96779.78;4171990;28;19971;-70
2024/03/27 07:52:39;;;;;;;;;;;;;;;10.27;56.08;96775.59;4167829;28;20520;-72
2024/03/27 07:54:39;;;;;;;;;;;;;;;10.40;55.46;96774.66;4168265;28;19932;-70
2024/03/27 07:56:43;;;;;;;;;;;;;;;10.51;55.42;96775.75;4168050;28;19916;-71
2024/03/27 07:58:43;;;;;;;;;;;;;;;10.61;54.79;96781.38;4149828;28;19915;-71
2024/03/27 08:00:43;;;;;;;;;;;;;;;10.50;55.26;96780.28;4167698;28;20055;-71
2024/03/27 08:02:44;;;;;;;;;;;;;;;10.65;54.75;96774.56;4167886;28;19959;-71
2024/03/27 08:04:44;;;;;;;;;;;;;;;10.72;54.82;96777.16;4167767;28;20467;-71
2024/03/27 08:06:44;;;;;;;;;;;;;;;10.75;54.78;96782.84;4168839;28;19916;-71
2024/03/27 08:08:45;;;;;;;;;;;;;;;10.76;55.00;96783.66;4170728;28;19940;-72
2024/03/27 08:10:54;;;;;;;;;;;;;;;10.82;54.72;96773.91;4176183;28;19909;-71
2024/03/27 08:12:54;;;;;;;;;;;;;;;10.70;55.18;96758.66;4177683;28;19912;-70
2024/03/27 08:14:55;;;;;;;;;;;;;;;10.71;54.80;96765.63;4178561;28;20063;-71
2024/03/27 08:16:56;;;;;;;;;;;;;;;10.88;54.51;96770.31;4183975;28;19989;-72
2024/03/27 08:18:56;;;;;;;;;;;;;;;11.04;54.17;96785.75;4183294;28;19913;-75
2024/03/27 08:20:57;;;;;;;;;;;;;;;11.17;53.92;96784.72;4184386;28;19916;-71
2024/03/27 08:22:57;;;;;;;;;;;;;;;11.24;53.68;96773.94;4183868;28;19921;-72
2024/03/27 08:24:58;;;;;;;;;;;;;;;11.62;53.04;96775.38;4173482;28;19913;-70
2024/03/27 08:26:58;;;;;;;;;;;;;;;11.99;52.27;96780.56;4168492;28;19928;-70
2024/03/27 08:28:59;;;;;;;;;;;;;;;12.40;50.90;96775.25;4168010;28;20004;-70
2024/03/27 08:30:59;;;;;;;;;;;;;;;12.76;50.16;96761.72;4166849;28;19913;-70
2024/03/27 08:32:59;;;;;;;;;;;;;;;12.74;50.48;96774.56;4167729;28;19909;-71
2024/03/27 08:35:00;;;;;;;;;;;;;;;12.94;50.06;96768.78;4166869;28;19909;-71
2024/03/27 08:37:00;;;;;;;;;;;;;;;13.00;48.88;96756.28;4170273;28;19972;-72
2024/03/27 08:39:00;;;;;;;;;;;;;;;12.78;49.48;96743.56;4172450;28;19909;-70
2024/03/27 08:41:01;;;;;;;;;;;;;;;13.18;48.51;96731.09;4168783;28;19916;-70
2024/03/27 08:43:02;;;;;;;;;;;;;;;13.73;47.47;96735.78;4171858;28;19958;-70
2024/03/27 08:45:04;;;;;;;;;;;;;;;14.38;46.37;96747.91;4170031;28;20395;-70
2024/03/27 08:47:04;;;;;;;;;;;;;;;14.64;45.42;96747.16;4168667;28;20339;-71
2024/03/27 08:49:05;;;;;;;;;;;;;;;14.75;45.46;96736.53;4164729;28;20054;-75
2024/03/27 08:51:05;;;;;;;;;;;;;;;15.22;44.20;96722.47;4164812;28;19905;-71
2024/03/27 08:53:05;;;;;;;;;;;;;;;15.51;43.63;96730.25;4164832;28;19920;-70
2024/03/27 08:55:06;;;;;;;;;;;;;;;15.41;44.01;96728.25;4164407;28;19953;-71
2024/03/27 08:57:06;;;;;;;;;;;;;;;15.39;44.41;96719.66;4163189;28;20013;-70
2024/03/27 08:59:06;;;;;;;;;;;;;;;15.27;44.47;96721.69;4164472;28;19948;-71
2024/03/27 09:01:14;;;;;;;;;;;;;;;15.24;44.51;96727.59;4164368;28;19909;-71
2024/03/27 09:03:14;;;;;;;;;;;;;;;15.13;44.53;96732.88;4163529;28;19975;-70
2024/03/27 09:05:18;;;;;;;;;;;;;;;15.72;42.01;96731.19;4164555;28;19912;-69
2024/03/27 09:07:18;;;;;;;;;;;;;;;15.27;43.60;96738.66;4164179;28;20357;-69
2024/03/27 09:09:18;;;;;;;;;;;;;;;15.26;43.95;96739.72;4163964;28;19952;-70
2024/03/27 09:11:21;;;;;;;;;;;;;;;15.69;42.83;96730.91;4164420;28;19913;-70
2024/03/27 09:13:22;;;;;;;;;;;;;;;15.75;43.19;96722.59;4164625;28;20480;-69
2024/03/27 09:15:23;;;;;;;;;;;;;;;15.84;42.80;96728.31;4162999;28;19917;-70
2024/03/27 09:17:23;;;;;;;;;;;;;;;16.29;41.76;96726.16;4164132;28;19935;-70
2024/03/27 09:19:23;;;;;;;;;;;;;;;15.90;42.32;96732.69;4164183;28;19929;-70
2024/03/27 09:21:24;;;;;;;;;;;;;;;15.27;43.19;96748.59;4164567;28;19913;-71
2024/03/27 09:23:24;;;;;;;;;;;;;;;15.65;42.82;96754.84;4164283;28;20084;-70
2024/03/27 09:25:25;;;;;;;;;;;;;;;16.09;42.09;96758.38;4163952;28;19920;-71
2024/03/27 09:27:25;;;;;;;;;;;;;;;16.21;42.03;96761.69;4163454;28;19916;-71
2024/03/27 09:29:25;;;;;;;;;;;;;;;16.47;41.51;96765.31;4163736;28;19931;-70
2024/03/27 09:31:26;;;;;;;;;;;;;;;16.03;42.68;96777.22;4163966;28;20361;-71
2024/03/27 09:33:26;;;;;;;;;;;;;;;16.12;42.24;96774.03;4146208;28;20012;-70
2024/03/27 09:35:27;;;;;;;;;;;;;;;15.93;42.67;96765.53;4162998;28;19936;-71
2024/03/27 09:37:27;;;;;;;;;;;;;;;16.10;42.41;96774.28;4163065;28;20354;-70
2024/03/27 09:39:27;;;;;;;;;;;;;;;16.59;41.55;96765.09;4163734;28;19916;-71
2024/03/27 09:41:28;;;;;;;;;;;;;;;17.45;40.04;96767.47;4164188;28;19909;-71
2024/03/27 09:43:29;;;;;;;;;;;;;;;17.58;39.99;96756.09;4146311;28;20390;-71
2024/03/27 09:45:30;;;;;;;;;;;;;;;17.46;39.72;96761.00;4164189;28;19940;-71
2024/03/27 09:47:33;;;;;;;;;;;;;;;18.03;38.79;96756.38;4163758;28;19909;-70
2024/03/27 09:49:34;;;;;;;;;;;;;;;18.21;38.43;96752.28;4165049;28;20423;-71
2024/03/27 09:51:35;;;;;;;;;;;;;;;18.43;37.77;96764.63;4165838;28;19919;-71
2024/03/27 09:53:40;;;;;;;;;;;;;;;17.85;38.76;96763.13;4164456;28;20007;-70
2024/03/27 09:55:41;;;;;;;;;;;;;;;17.84;38.87;96766.09;4163782;28;19915;-70
2024/03/27 09:57:41;;;;;;;;;;;;;;;17.60;38.87;96775.56;4163118;28;19959;-71
2024/03/27 09:59:41;;;;;;;;;;;;;;;18.05;37.92;96772.28;4164027;28;19915;-70
2024/03/27 10:01:42;;;;;;;;;;;;;;;18.17;37.69;96772.03;4164107;28;19996;-69
2024/03/27 10:03:42;;;;;;;;;;;;;;;17.97;38.87;96778.25;4165184;28;19913;-71
2024/03/27 10:05:43;;;;;;;;;;;;;;;18.33;38.51;96786.28;4163640;28;19956;-72
2024/03/27 10:07:43;;;;;;;;;;;;;;;18.18;38.39;96782.56;4162794;28;19985;-71
2024/03/27 10:09:44;;;;;;;;;;;;;;;18.85;37.21;96782.31;4162294;28;19917;-71
2024/03/27 10:11:45;;;;;;;;;;;;;;;17.74;38.45;96791.22;4163537;28;19909;-72
2024/03/27 10:13:47;;;;;;;;;;;;;;;17.61;39.42;96792.59;4163485;28;19933;-71
2024/03/27 10:15:48;;;;;;;;;;;;;;;17.28;39.69;96795.53;4163725;28;19909;-71
2024/03/27 10:17:48;;;;;;;;;;;;;;;16.86;41.02;96801.84;4163019;28;19963;-70
2024/03/27 10:19:48;;;;;;;;;;;;;;;16.01;43.43;96803.59;4162246;28;20655;-70
2024/03/27 10:21:49;;;;;;;;;;;;;;;16.57;42.74;96818.47;4163641;28;20417;-71
2024/03/27 10:23:49;;;;;;;;;;;;;;;16.89;42.48;96814.00;4163721;28;19913;-71
2024/03/27 10:25:50;;;;;;;;;;;;;;;15.77;44.06;96816.59;4170373;28;19924;-71
2024/03/27 10:27:51;;;;;;;;;;;;;;;16.94;42.09;96822.97;4178425;28;19912;-71
2024/03/27 10:29:52;;;;;;;;;;;;;;;17.18;41.57;96816.28;4176496;28;19913;-71
2024/03/27 10:31:53;;;;;;;;;;;;;;;16.91;41.97;96823.44;4159998;28;19949;-71